Time;durP1;ratioP1;P1;durP2;ratioP2;P2;SDS_P1;SDS_P2;PMS_P1;PMS_P2;Temp;Humidity;BMP_temperature;BMP_pressure;BME280_temperature;BME280_humidity;BME280_pressure;Samples;Min_cycle;Max_cycle;Signal;HPM_P1;HPM_P2
2023/08/30 00:00:02;;;;;;;10.38;9.18;;;;;;;;;;495649;28;1537;-75
2023/08/30 00:00:18;;;;;;;10.07;9.07;;;;;;;;;;494307;29;1158;-75
2023/08/30 00:00:34;;;;;;;9.93;8.98;;;;;;;;;;494256;28;1100;-75
2023/08/30 00:00:49;;;;;;;10.02;9.07;;;;;;;;;;492738;29;1320;-75
2023/08/30 00:01:05;;;;;;;10.07;9.17;;;;;;;;;;490858;29;1201;-76
2023/08/30 00:01:21;;;;;;;9.93;8.93;;;;;;;;;;487981;29;1157;-75
2023/08/30 00:01:36;;;;;;;9.73;8.77;;;;;;;;;;486589;29;1117;-74
2023/08/30 00:01:52;;;;;;;9.93;9.03;;;;;;;;;;486016;29;908;-76
2023/08/30 00:02:08;;;;;;;10.20;9.20;;;;;;;;;;488605;29;1197;-75
2023/08/30 00:02:24;;;;;;;9.98;8.93;;;;;;;;;;487348;29;1337;-75
2023/08/30 00:02:39;;;;;;;9.95;8.95;;;;;;;;;;487583;29;1232;-75
2023/08/30 00:02:55;;;;;;;10.07;9.07;;;;;;;;;;490424;29;1062;-75
2023/08/30 00:03:12;;;;;;;10.10;8.98;;;;;;;;;;487160;29;1121;-75
2023/08/30 00:03:27;;;;;;;10.35;9.25;;;;;;;;;;491866;29;1298;-75
2023/08/30 00:03:43;;;;;;;10.37;9.40;;;;;;;;;;492651;29;1226;-76
2023/08/30 00:03:59;;;;;;;10.02;9.10;;;;;;;;;;492816;29;1238;-75
2023/08/30 00:04:15;;;;;;;10.02;9.02;;;;;;;;;;491545;29;1081;-75
2023/08/30 00:04:30;;;;;;;10.30;9.30;;;;;;;;;;492296;29;1185;-75
2023/08/30 00:04:46;;;;;;;10.40;9.30;;;;;;;;;;493348;29;1267;-75
2023/08/30 00:05:03;;;;;;;10.00;9.00;;;;;;;;;;489850;29;1106;-75
2023/08/30 00:05:18;;;;;;;9.60;8.70;;;;;;;;;;492439;28;1075;-75
2023/08/30 00:05:38;;;;;;;9.45;8.55;;;;;;;;;;491959;29;1048;-76
2023/08/30 00:05:55;;;;;;;10.23;9.30;;;;;;;;;;489742;29;1525;-76
2023/08/30 00:06:11;;;;;;;10.68;9.68;;;;;;;;;;485588;29;1278;-76
2023/08/30 00:06:27;;;;;;;10.30;9.30;;;;;;;;;;492314;29;1309;-75
2023/08/30 00:06:43;;;;;;;10.38;9.38;;;;;;;;;;488990;29;1092;-75
2023/08/30 00:06:58;;;;;;;10.70;9.60;;;;;;;;;;489891;29;1073;-75
2023/08/30 00:07:14;;;;;;;10.60;9.50;;;;;;;;;;484818;29;1216;-76
2023/08/30 00:07:31;;;;;;;10.35;9.35;;;;;;;;;;485398;29;971;-75
2023/08/30 00:07:47;;;;;;;10.18;9.18;;;;;;;;;;488563;29;1239;-76
2023/08/30 00:08:02;;;;;;;10.47;9.47;;;;;;;;;;487020;29;1315;-75
2023/08/30 00:08:19;;;;;;;10.63;9.63;;;;;;;;;;489332;29;1340;-75
2023/08/30 00:08:35;;;;;;;10.40;9.38;;;;;;;;;;491129;29;1194;-75
2023/08/30 00:08:50;;;;;;;10.55;9.48;;;;;;;;;;490040;29;1283;-75
2023/08/30 00:09:06;;;;;;;10.27;9.30;;;;;;;;;;492806;29;1289;-75
2023/08/30 00:09:21;;;;;;;10.43;9.43;;;;;;;;;;489443;29;1389;-75
2023/08/30 00:09:37;;;;;;;10.67;9.67;;;;;;;;;;492402;29;1254;-75
2023/08/30 00:09:52;;;;;;;10.67;9.67;;;;;;;;;;491092;29;2009;-75
2023/08/30 00:10:10;;;;;;;10.55;9.55;;;;;;;;;;493464;29;967;-76
2023/08/30 00:10:26;;;;;;;10.32;9.40;;;;;;;;;;490793;29;1124;-76
2023/08/30 00:10:42;;;;;;;10.43;9.43;;;;;;;;;;491547;29;1274;-75
2023/08/30 00:10:58;;;;;;;10.80;9.70;;;;;;;;;;491023;29;1278;-76
2023/08/30 00:11:14;;;;;;;10.93;9.82;;;;;;;;;;491037;29;1276;-76
2023/08/30 00:11:30;;;;;;;10.35;9.35;;;;;;;;;;494742;29;1324;-75
2023/08/30 00:11:45;;;;;;;10.23;9.23;;;;;;;;;;491386;29;1306;-75
2023/08/30 00:12:02;;;;;;;10.20;9.20;;;;;;;;;;489926;29;1229;-75
2023/08/30 00:12:17;;;;;;;9.88;8.88;;;;;;;;;;493138;29;1451;-75
2023/08/30 00:12:34;;;;;;;9.90;8.90;;;;;;;;;;493007;29;1112;-75
2023/08/30 00:12:49;;;;;;;9.93;8.93;;;;;;;;;;493944;29;1300;-75
2023/08/30 00:13:05;;;;;;;10.07;9.07;;;;;;;;;;489188;29;1277;-75
2023/08/30 00:13:20;;;;;;;10.45;9.45;;;;;;;;;;489148;29;886;-75
2023/08/30 00:13:36;;;;;;;10.27;9.27;;;;;;;;;;491865;29;1255;-76
2023/08/30 00:13:51;;;;;;;10.55;9.55;;;;;;;;;;490025;29;1251;-75
2023/08/30 00:14:07;;;;;;;10.73;9.63;;;;;;;;;;493590;29;1037;-76
2023/08/30 00:14:22;;;;;;;10.18;9.15;;;;;;;;;;489138;29;1392;-75
2023/08/30 00:14:39;;;;;;;10.30;9.33;;;;;;;;;;488729;29;1145;-75
2023/08/30 00:14:54;;;;;;;10.60;9.60;;;;;;;;;;492670;29;1205;-76
2023/08/30 00:15:10;;;;;;;10.00;9.10;;;;;;;;;;490728;29;1133;-75
2023/08/30 00:15:25;;;;;;;9.90;9.00;;;;;;;;;;490124;29;1286;-75
2023/08/30 00:15:41;;;;;;;10.57;9.47;;;;;;;;;;488051;29;1230;-75
2023/08/30 00:15:57;;;;;;;10.63;9.35;;;;;;;;;;488842;29;1398;-76
2023/08/30 00:16:12;;;;;;;10.37;9.37;;;;;;;;;;483990;29;1181;-76
2023/08/30 00:16:28;;;;;;;10.27;9.27;;;;;;;;;;483854;29;1415;-75
2023/08/30 00:16:44;;;;;;;10.02;9.02;;;;;;;;;;486041;29;1362;-76
2023/08/30 00:17:00;;;;;;;10.02;9.10;;;;;;;;;;489819;29;1088;-76
2023/08/30 00:17:16;;;;;;;10.38;9.35;;;;;;;;;;486240;29;1181;-76
2023/08/30 00:17:31;;;;;;;10.43;9.43;;;;;;;;;;489770;29;1166;-75
2023/08/30 00:17:47;;;;;;;10.30;9.30;;;;;;;;;;489133;29;1168;-76
2023/08/30 00:18:03;;;;;;;10.52;9.55;;;;;;;;;;490616;29;1338;-76
2023/08/30 00:18:19;;;;;;;10.48;9.48;;;;;;;;;;490293;29;1329;-75
2023/08/30 00:18:35;;;;;;;10.07;9.07;;;;;;;;;;488372;29;1032;-76
2023/08/30 00:18:50;;;;;;;10.00;9.00;;;;;;;;;;488183;29;1210;-75
2023/08/30 00:19:06;;;;;;;10.45;9.45;;;;;;;;;;490712;29;1273;-76
2023/08/30 00:19:23;;;;;;;10.23;9.23;;;;;;;;;;488365;29;1096;-74
2023/08/30 00:19:38;;;;;;;9.75;8.85;;;;;;;;;;488860;29;1089;-76
2023/08/30 00:19:55;;;;;;;10.43;9.33;;;;;;;;;;486628;29;1084;-75
2023/08/30 00:20:11;;;;;;;10.63;9.32;;;;;;;;;;487281;29;1359;-76
2023/08/30 00:20:27;;;;;;;10.15;9.05;;;;;;;;;;491064;29;1335;-75
2023/08/30 00:20:42;;;;;;;10.37;9.37;;;;;;;;;;487783;29;1320;-76
2023/08/30 00:20:58;;;;;;;10.40;9.40;;;;;;;;;;485094;29;1179;-74
2023/08/30 00:21:16;;;;;;;9.98;9.07;;;;;;;;;;489993;29;1167;-75
2023/08/30 00:21:32;;;;;;;10.18;9.27;;;;;;;;;;490590;29;1143;-75
2023/08/30 00:21:47;;;;;;;10.45;9.35;;;;;;;;;;488584;29;1243;-76
2023/08/30 00:22:03;;;;;;;11.00;9.60;;;;;;;;;;489616;29;1563;-75
2023/08/30 00:22:19;;;;;;;10.57;9.48;;;;;;;;;;484383;29;1229;-75
2023/08/30 00:22:35;;;;;;;10.50;9.47;;;;;;;;;;489148;29;1266;-75
2023/08/30 00:22:52;;;;;;;10.50;9.48;;;;;;;;;;484975;29;1170;-76
2023/08/30 00:23:07;;;;;;;10.48;9.48;;;;;;;;;;484649;29;1182;-76
2023/08/30 00:23:23;;;;;;;11.37;9.67;;;;;;;;;;482771;29;1074;-76
2023/08/30 00:23:39;;;;;;;11.20;10.02;;;;;;;;;;484979;29;1265;-76
2023/08/30 00:23:55;;;;;;;11.05;9.98;;;;;;;;;;484128;29;1297;-75
2023/08/30 00:24:10;;;;;;;10.73;9.63;;;;;;;;;;485192;29;1303;-75
2023/08/30 00:24:26;;;;;;;10.60;9.50;;;;;;;;;;483783;29;1084;-75
2023/08/30 00:24:42;;;;;;;10.88;9.77;;;;;;;;;;482486;29;1290;-76
2023/08/30 00:24:57;;;;;;;11.07;9.97;;;;;;;;;;486979;29;1484;-76
2023/08/30 00:25:13;;;;;;;11.10;10.00;;;;;;;;;;483578;29;1333;-76
2023/08/30 00:25:28;;;;;;;10.90;9.80;;;;;;;;;;491079;29;1171;-75
2023/08/30 00:25:44;;;;;;;10.75;9.68;;;;;;;;;;490265;29;999;-75
2023/08/30 00:26:00;;;;;;;10.65;9.65;;;;;;;;;;489703;29;1570;-75
2023/08/30 00:26:16;;;;;;;10.73;9.73;;;;;;;;;;491681;29;1022;-76
2023/08/30 00:26:31;;;;;;;10.80;9.80;;;;;;;;;;489860;29;1232;-75
2023/08/30 00:26:47;;;;;;;11.27;10.27;;;;;;;;;;489551;29;1286;-76
2023/08/30 00:27:03;;;;;;;11.45;10.25;;;;;;;;;;485451;29;1304;-76
2023/08/30 00:27:20;;;;;;;11.70;10.47;;;;;;;;;;485501;29;1128;-75
2023/08/30 00:27:35;;;;;;;11.95;10.75;;;;;;;;;;489358;29;1288;-76
2023/08/30 00:27:51;;;;;;;11.48;10.38;;;;;;;;;;486249;29;876;-75
2023/08/30 00:28:06;;;;;;;11.00;10.00;;;;;;;;;;487571;29;1064;-76
2023/08/30 00:28:22;;;;;;;11.30;10.20;;;;;;;;;;487003;29;929;-75
2023/08/30 00:28:37;;;;;;;11.32;10.23;;;;;;;;;;487826;29;1289;-75
2023/08/30 00:28:53;;;;;;;11.13;10.07;;;;;;;;;;486686;29;1441;-76
2023/08/30 00:29:09;;;;;;;11.55;10.38;;;;;;;;;;488251;29;1330;-76
2023/08/30 00:29:24;;;;;;;11.87;10.67;;;;;;;;;;483235;29;1140;-75
2023/08/30 00:29:40;;;;;;;11.77;10.63;;;;;;;;;;490749;29;1569;-75
2023/08/30 00:29:55;;;;;;;12.10;10.90;;;;;;;;;;489466;29;1952;-76
2023/08/30 00:30:12;;;;;;;12.00;10.80;;;;;;;;;;486820;29;875;-76
2023/08/30 00:30:27;;;;;;;11.70;10.52;;;;;;;;;;489040;29;1170;-75
2023/08/30 00:30:43;;;;;;;11.23;10.18;;;;;;;;;;489230;29;947;-76
2023/08/30 00:30:58;;;;;;;10.82;9.77;;;;;;;;;;492458;29;1231;-69
2023/08/30 00:31:14;;;;;;;10.93;9.83;;;;;;;;;;489431;28;1261;-70
2023/08/30 00:31:30;;;;;;;10.98;9.88;;;;;;;;;;491381;28;1268;-70
2023/08/30 00:31:45;;;;;;;11.00;9.90;;;;;;;;;;492708;28;1204;-69
2023/08/30 00:32:01;;;;;;;11.32;10.23;;;;;;;;;;494706;28;971;-69
2023/08/30 00:32:17;;;;;;;11.10;10.00;;;;;;;;;;493444;28;1248;-70
2023/08/30 00:32:32;;;;;;;10.77;9.67;;;;;;;;;;492987;28;1071;-69
2023/08/30 00:32:48;;;;;;;11.13;10.02;;;;;;;;;;493437;29;1232;-69
2023/08/30 00:33:04;;;;;;;11.43;10.30;;;;;;;;;;492352;29;1197;-69
2023/08/30 00:33:20;;;;;;;11.50;10.30;;;;;;;;;;490039;28;1242;-70
2023/08/30 00:33:35;;;;;;;11.18;10.07;;;;;;;;;;489897;29;1320;-70
2023/08/30 00:33:52;;;;;;;11.00;9.90;;;;;;;;;;492222;29;1353;-69
2023/08/30 00:34:09;;;;;;;11.40;10.20;;;;;;;;;;489757;29;1332;-70
2023/08/30 00:34:25;;;;;;;10.52;9.43;;;;;;;;;;489998;29;938;-69
2023/08/30 00:34:41;;;;;;;10.32;9.32;;;;;;;;;;489434;29;1451;-70
2023/08/30 00:34:56;;;;;;;11.10;10.00;;;;;;;;;;491346;29;1261;-70
2023/08/30 00:35:12;;;;;;;11.10;10.00;;;;;;;;;;488458;29;1051;-70
2023/08/30 00:35:28;;;;;;;10.98;9.88;;;;;;;;;;490489;29;1423;-70
2023/08/30 00:35:43;;;;;;;10.80;9.70;;;;;;;;;;487789;29;1213;-69
2023/08/30 00:36:00;;;;;;;10.45;9.45;;;;;;;;;;492081;29;1392;-69
2023/08/30 00:36:18;;;;;;;10.30;9.30;;;;;;;;;;485634;29;1240;-69
2023/08/30 00:36:33;;;;;;;11.25;10.05;;;;;;;;;;486762;29;1170;-69
2023/08/30 00:36:49;;;;;;;11.20;10.10;;;;;;;;;;488108;29;1389;-70
2023/08/30 00:37:05;;;;;;;11.02;9.93;;;;;;;;;;493834;29;1476;-70
2023/08/30 00:37:20;;;;;;;10.87;9.67;;;;;;;;;;496433;29;1415;-69
2023/08/30 00:37:36;;;;;;;11.35;10.15;;;;;;;;;;489819;29;1419;-69
2023/08/30 00:37:52;;;;;;;11.43;10.23;;;;;;;;;;491357;29;2254;-70
2023/08/30 00:38:07;;;;;;;11.00;9.90;;;;;;;;;;490854;29;1314;-70
2023/08/30 00:38:23;;;;;;;11.10;10.00;;;;;;;;;;489988;29;1357;-69
2023/08/30 00:38:38;;;;;;;11.00;9.90;;;;;;;;;;490726;29;1291;-69
2023/08/30 00:38:54;;;;;;;11.20;10.13;;;;;;;;;;489699;29;952;-69
2023/08/30 00:39:09;;;;;;;10.93;9.87;;;;;;;;;;490686;29;1272;-69
2023/08/30 00:39:25;;;;;;;10.65;9.55;;;;;;;;;;488628;29;1251;-69
2023/08/30 00:39:41;;;;;;;10.83;9.73;;;;;;;;;;486616;29;1016;-69
2023/08/30 00:39:56;;;;;;;11.00;9.93;;;;;;;;;;489372;29;1252;-70
2023/08/30 00:40:12;;;;;;;10.82;9.82;;;;;;;;;;488306;29;1249;-69
2023/08/30 00:40:28;;;;;;;10.68;9.68;;;;;;;;;;489667;29;1240;-70
2023/08/30 00:40:44;;;;;;;11.00;9.90;;;;;;;;;;490716;29;1161;-70
2023/08/30 00:41:00;;;;;;;11.25;10.15;;;;;;;;;;489247;29;947;-70
2023/08/30 00:41:16;;;;;;;10.90;9.80;;;;;;;;;;486228;29;1214;-70
2023/08/30 00:41:32;;;;;;;10.70;9.60;;;;;;;;;;490580;29;1227;-70
2023/08/30 00:41:47;;;;;;;10.75;9.68;;;;;;;;;;487668;29;910;-69
2023/08/30 00:42:05;;;;;;;10.93;9.82;;;;;;;;;;490868;29;1245;-69
2023/08/30 00:42:21;;;;;;;10.73;9.73;;;;;;;;;;488496;29;1433;-70
2023/08/30 00:42:36;;;;;;;10.80;9.70;;;;;;;;;;490767;29;1330;-69
2023/08/30 00:42:52;;;;;;;10.43;9.43;;;;;;;;;;489012;29;1190;-69
2023/08/30 00:43:08;;;;;;;10.40;9.40;;;;;;;;;;488941;29;1500;-69
2023/08/30 00:43:23;;;;;;;11.40;10.20;;;;;;;;;;488540;29;1211;-69
2023/08/30 00:43:39;;;;;;;11.20;10.10;;;;;;;;;;488139;29;1320;-69
2023/08/30 00:43:55;;;;;;;11.27;10.07;;;;;;;;;;487170;29;1025;-69
2023/08/30 00:44:10;;;;;;;11.18;9.98;;;;;;;;;;486581;29;1139;-69
2023/08/30 00:44:26;;;;;;;10.75;9.75;;;;;;;;;;489654;29;1220;-69
2023/08/30 00:44:42;;;;;;;10.80;9.80;;;;;;;;;;486299;29;1531;-69
2023/08/30 00:44:57;;;;;;;10.48;9.48;;;;;;;;;;486719;29;1385;-69
2023/08/30 00:45:15;;;;;;;10.02;9.13;;;;;;;;;;486025;29;911;-69
2023/08/30 00:45:30;;;;;;;10.63;9.63;;;;;;;;;;484476;29;1270;-69
2023/08/30 00:45:47;;;;;;;10.60;9.60;;;;;;;;;;487489;29;1185;-69
2023/08/30 00:46:03;;;;;;;10.70;9.60;;;;;;;;;;488930;29;1310;-69
2023/08/30 00:46:19;;;;;;;10.47;9.47;;;;;;;;;;487932;29;1068;-69
2023/08/30 00:46:35;;;;;;;10.02;9.02;;;;;;;;;;488162;29;1375;-69
2023/08/30 00:46:51;;;;;;;10.07;9.07;;;;;;;;;;487299;29;1359;-70
2023/08/30 00:47:06;;;;;;;10.40;9.40;;;;;;;;;;483074;29;1152;-69
2023/08/30 00:47:22;;;;;;;10.55;9.55;;;;;;;;;;487803;29;1010;-69
2023/08/30 00:47:38;;;;;;;10.55;9.55;;;;;;;;;;487526;29;1131;-70
2023/08/30 00:47:53;;;;;;;10.40;9.40;;;;;;;;;;486867;29;1170;-70
2023/08/30 00:48:10;;;;;;;9.80;8.90;;;;;;;;;;486281;29;1227;-69
2023/08/30 00:48:25;;;;;;;9.77;8.88;;;;;;;;;;488604;29;1329;-69
2023/08/30 00:48:42;;;;;;;10.20;9.20;;;;;;;;;;487717;29;1276;-69
2023/08/30 00:48:58;;;;;;;10.48;9.48;;;;;;;;;;490618;29;1367;-69
2023/08/30 00:49:14;;;;;;;10.52;9.52;;;;;;;;;;490226;29;1216;-69
2023/08/30 00:49:31;;;;;;;9.70;8.80;;;;;;;;;;490573;28;1208;-69
2023/08/30 00:49:47;;;;;;;10.38;9.38;;;;;;;;;;491394;29;1990;-70
2023/08/30 00:50:02;;;;;;;10.93;9.93;;;;;;;;;;490757;29;1292;-70
2023/08/30 00:50:19;;;;;;;10.43;9.50;;;;;;;;;;487520;29;1293;-69
2023/08/30 00:50:35;;;;;;;10.70;9.70;;;;;;;;;;490576;29;1499;-69
2023/08/30 00:50:50;;;;;;;10.88;9.85;;;;;;;;;;494567;28;1392;-69
2023/08/30 00:51:06;;;;;;;10.40;9.40;;;;;;;;;;490396;29;1273;-69
2023/08/30 00:51:22;;;;;;;10.18;9.20;;;;;;;;;;490234;29;1446;-69
2023/08/30 00:51:40;;;;;;;10.00;9.00;;;;;;;;;;492654;29;1106;-70
2023/08/30 00:51:58;;;;;;;9.93;8.93;;;;;;;;;;492530;29;1721;-69
2023/08/30 00:52:14;;;;;;;10.48;9.45;;;;;;;;;;488176;29;1367;-69
2023/08/30 00:52:30;;;;;;;10.40;9.30;;;;;;;;;;488207;29;1232;-70
2023/08/30 00:52:45;;;;;;;10.70;9.32;;;;;;;;;;492835;29;1287;-70
2023/08/30 00:53:05;;;;;;;10.20;9.20;;;;;;;;;;490602;29;1185;-70
2023/08/30 00:53:22;;;;;;;10.32;9.30;;;;;;;;;;489671;29;1396;-70
2023/08/30 00:53:37;;;;;;;10.30;9.32;;;;;;;;;;487830;29;1099;-70
2023/08/30 00:53:58;;;;;;;10.52;9.52;;;;;;;;;;484289;29;1483;-69
2023/08/30 00:54:13;;;;;;;11.23;10.15;;;;;;;;;;486421;29;1310;-69
2023/08/30 00:54:29;;;;;;;10.67;9.53;;;;;;;;;;487003;29;1434;-69
2023/08/30 00:54:45;;;;;;;9.95;8.95;;;;;;;;;;488986;29;1219;-69
2023/08/30 00:55:00;;;;;;;10.07;9.15;;;;;;;;;;488670;29;1207;-69
2023/08/30 00:55:16;;;;;;;10.65;9.65;;;;;;;;;;489178;29;1356;-69
2023/08/30 00:55:35;;;;;;;10.57;9.57;;;;;;;;;;490206;29;1328;-70
2023/08/30 00:55:51;;;;;;;10.48;9.48;;;;;;;;;;491018;29;943;-69
2023/08/30 00:56:06;;;;;;;10.15;9.23;;;;;;;;;;485421;29;1203;-70
2023/08/30 00:56:22;;;;;;;10.13;9.20;;;;;;;;;;486896;29;1132;-70
2023/08/30 00:56:38;;;;;;;10.57;9.48;;;;;;;;;;488725;29;901;-70
2023/08/30 00:56:54;;;;;;;10.60;9.57;;;;;;;;;;487023;29;1097;-70
2023/08/30 00:57:10;;;;;;;10.85;9.85;;;;;;;;;;488065;29;1539;-69
2023/08/30 00:57:26;;;;;;;11.25;10.15;;;;;;;;;;490639;29;998;-69
2023/08/30 00:57:42;;;;;;;10.90;9.83;;;;;;;;;;486835;29;1112;-69
2023/08/30 00:57:57;;;;;;;10.45;9.45;;;;;;;;;;488173;29;1412;-69
2023/08/30 00:58:13;;;;;;;10.50;9.50;;;;;;;;;;485940;29;1147;-69
2023/08/30 00:58:29;;;;;;;10.30;9.40;;;;;;;;;;484702;29;1432;-69
2023/08/30 00:58:45;;;;;;;10.33;9.33;;;;;;;;;;486533;29;923;-69
2023/08/30 00:59:00;;;;;;;10.48;9.43;;;;;;;;;;483692;29;886;-69
2023/08/30 00:59:16;;;;;;;10.65;9.55;;;;;;;;;;485709;29;1256;-69
2023/08/30 00:59:33;;;;;;;10.57;9.50;;;;;;;;;;488571;29;1030;-69
2023/08/30 00:59:51;;;;;;;10.45;9.40;;;;;;;;;;489079;29;1333;-69
2023/08/30 01:00:09;;;;;;;10.50;9.50;;;;;;;;;;490263;29;1289;-70
2023/08/30 01:00:24;;;;;;;10.60;9.60;;;;;;;;;;489695;29;1288;-69
2023/08/30 01:00:40;;;;;;;10.48;9.48;;;;;;;;;;486843;29;1312;-69
2023/08/30 01:00:57;;;;;;;10.47;9.40;;;;;;;;;;488324;29;1315;-70
2023/08/30 01:01:14;;;;;;;10.60;9.60;;;;;;;;;;487363;29;975;-70
2023/08/30 01:01:29;;;;;;;10.52;9.55;;;;;;;;;;485263;29;1346;-69
2023/08/30 01:01:45;;;;;;;10.47;9.47;;;;;;;;;;490935;29;1032;-70
2023/08/30 01:02:02;;;;;;;10.45;9.45;;;;;;;;;;489721;29;1033;-70
2023/08/30 01:02:18;;;;;;;10.40;9.40;;;;;;;;;;488392;29;1282;-69
2023/08/30 01:02:34;;;;;;;10.55;9.55;;;;;;;;;;491645;29;1375;-70
2023/08/30 01:02:49;;;;;;;11.25;10.15;;;;;;;;;;491553;29;1250;-70
2023/08/30 01:03:07;;;;;;;10.80;9.73;;;;;;;;;;490090;29;977;-69
2023/08/30 01:03:23;;;;;;;10.85;9.85;;;;;;;;;;490885;29;1443;-69
2023/08/30 01:03:38;;;;;;;11.10;10.07;;;;;;;;;;492605;29;1291;-69
2023/08/30 01:03:54;;;;;;;11.20;10.10;;;;;;;;;;490560;28;1327;-69
2023/08/30 01:04:10;;;;;;;11.27;10.07;;;;;;;;;;485944;29;1235;-69
2023/08/30 01:04:27;;;;;;;10.90;9.80;;;;;;;;;;488823;29;1349;-70
2023/08/30 01:04:43;;;;;;;10.65;9.65;;;;;;;;;;486676;29;1255;-69
2023/08/30 01:04:58;;;;;;;10.77;9.68;;;;;;;;;;489388;29;1091;-70
2023/08/30 01:05:14;;;;;;;10.32;9.32;;;;;;;;;;488211;29;1286;-70
2023/08/30 01:05:30;;;;;;;10.37;9.30;;;;;;;;;;489500;28;1220;-69
2023/08/30 01:05:45;;;;;;;10.70;9.60;;;;;;;;;;490693;29;1353;-70
2023/08/30 01:06:01;;;;;;;10.40;9.50;;;;;;;;;;490842;29;1240;-69
2023/08/30 01:06:17;;;;;;;10.13;9.23;;;;;;;;;;487730;29;1045;-69
2023/08/30 01:06:35;;;;;;;10.07;9.07;;;;;;;;;;492893;29;1356;-69
2023/08/30 01:06:51;;;;;;;9.80;8.80;;;;;;;;;;487949;29;1103;-69
2023/08/30 01:07:06;;;;;;;10.02;9.02;;;;;;;;;;487424;29;1078;-69
2023/08/30 01:07:23;;;;;;;10.50;9.50;;;;;;;;;;484046;29;1143;-69
2023/08/30 01:07:39;;;;;;;10.38;9.35;;;;;;;;;;487286;29;1285;-69
2023/08/30 01:07:55;;;;;;;10.40;9.30;;;;;;;;;;490552;29;1167;-69
2023/08/30 01:08:11;;;;;;;10.23;9.20;;;;;;;;;;488278;29;1068;-69
2023/08/30 01:08:27;;;;;;;10.00;9.00;;;;;;;;;;488818;29;1120;-69
2023/08/30 01:08:43;;;;;;;9.77;8.85;;;;;;;;;;492022;29;1545;-69
2023/08/30 01:08:59;;;;;;;9.57;8.68;;;;;;;;;;493554;28;1338;-69
2023/08/30 01:09:16;;;;;;;9.70;8.77;;;;;;;;;;489127;29;1187;-70
2023/08/30 01:09:31;;;;;;;10.07;9.07;;;;;;;;;;492169;29;1414;-69
2023/08/30 01:09:47;;;;;;;10.07;9.07;;;;;;;;;;491694;28;1190;-70
2023/08/30 01:10:03;;;;;;;10.37;9.37;;;;;;;;;;490453;29;1206;-69
2023/08/30 01:10:26;;;;;;;10.40;9.40;;;;;;;;;;487774;29;1372;-69
2023/08/30 01:10:53;;;;;;;9.90;8.90;;;;;;;;;;488999;29;1834;-68
2023/08/30 01:11:19;;;;;;;9.85;8.95;;;;;;;;;;488822;29;1160;-69
2023/08/30 01:12:05;;;;;;;10.15;9.18;;;;;;;;;;490722;29;1326;-69
2023/08/30 01:12:37;;;;;;;10.23;9.23;;;;;;;;;;488562;29;990;-70
2023/08/30 01:13:00;;;;;;;10.18;9.18;;;;;;;;;;488327;29;1388;-70
2023/08/30 01:13:19;;;;;;;10.10;9.10;;;;;;;;;;489911;28;1489;-70
2023/08/30 01:13:42;;;;;;;10.05;9.05;;;;;;;;;;494682;28;1450;-69
2023/08/30 01:14:03;;;;;;;10.40;9.40;;;;;;;;;;492044;28;1213;-69
2023/08/30 01:14:22;;;;;;;10.43;9.38;;;;;;;;;;488769;28;982;-70
2023/08/30 01:14:47;;;;;;;10.23;9.23;;;;;;;;;;490834;28;1305;-69
2023/08/30 01:15:18;;;;;;;10.40;9.40;;;;;;;;;;492137;29;1203;-69
2023/08/30 01:15:35;;;;;;;10.35;9.25;;;;;;;;;;492338;29;1483;-69
2023/08/30 01:15:53;;;;;;;10.20;9.20;;;;;;;;;;491148;29;1161;-70
2023/08/30 01:16:09;;;;;;;10.13;9.13;;;;;;;;;;490357;29;1234;-69
2023/08/30 01:16:25;;;;;;;9.77;8.77;;;;;;;;;;488943;29;1235;-69
2023/08/30 01:16:41;;;;;;;9.20;8.30;;;;;;;;;;489930;29;1550;-69
2023/08/30 01:16:58;;;;;;;9.43;8.52;;;;;;;;;;490123;29;1100;-69
2023/08/30 01:17:16;;;;;;;9.80;8.82;;;;;;;;;;487464;29;1154;-69
2023/08/30 01:17:32;;;;;;;10.18;9.18;;;;;;;;;;486084;29;1299;-70
2023/08/30 01:17:49;;;;;;;10.25;9.27;;;;;;;;;;487599;29;1020;-69
2023/08/30 01:18:05;;;;;;;9.98;9.07;;;;;;;;;;486770;29;1867;-70
2023/08/30 01:18:24;;;;;;;9.80;8.90;;;;;;;;;;484541;29;1308;-70
2023/08/30 01:18:40;;;;;;;10.13;9.13;;;;;;;;;;487524;29;1388;-70
2023/08/30 01:18:56;;;;;;;10.20;9.20;;;;;;;;;;489458;29;1351;-70
2023/08/30 01:19:30;;;;;;;9.93;9.02;;;;;;;;;;487133;29;1051;-69
2023/08/30 01:19:49;;;;;;;10.40;9.40;;;;;;;;;;489124;29;1308;-69
2023/08/30 01:20:14;;;;;;;10.13;9.13;;;;;;;;;;486221;29;1265;-70
2023/08/30 01:20:35;;;;;;;9.95;9.00;;;;;;;;;;489065;29;1043;-70
2023/08/30 01:20:53;;;;;;;9.80;8.90;;;;;;;;;;491176;29;1295;-69
2023/08/30 01:21:17;;;;;;;10.13;9.13;;;;;;;;;;490470;28;1259;-70
2023/08/30 01:21:38;;;;;;;10.30;9.30;;;;;;;;;;488317;29;1464;-69
2023/08/30 01:22:05;;;;;;;9.95;9.05;;;;;;;;;;490884;28;1363;-69
2023/08/30 01:22:34;;;;;;;10.55;9.55;;;;;;;;;;489368;29;1258;-69
2023/08/30 01:23:34;;;;;;;9.93;8.93;;;;;;;;;;492567;29;1107;-70
2023/08/30 01:24:00;;;;;;;10.48;9.38;;;;;;;;;;488334;29;1053;-69
2023/08/30 01:24:26;;;;;;;10.52;9.48;;;;;;;;;;488472;28;1370;-69
2023/08/30 01:25:09;;;;;;;11.18;9.55;;;;;;;;;;492675;28;1143;-69
2023/08/30 01:25:30;;;;;;;10.20;9.20;;;;;;;;;;493087;28;1257;-69
2023/08/30 01:26:11;;;;;;;10.35;9.35;;;;;;;;;;493616;28;1201;-69
2023/08/30 01:26:49;;;;;;;10.07;9.07;;;;;;;;;;491825;29;1120;-69
2023/08/30 01:27:09;;;;;;;10.48;9.38;;;;;;;;;;489692;28;1085;-70
2023/08/30 01:27:26;;;;;;;10.10;9.10;;;;;;;;;;487504;29;1571;-70
2023/08/30 01:27:47;;;;;;;10.05;9.07;;;;;;;;;;488100;28;999;-70
2023/08/30 01:28:05;;;;;;;9.88;8.98;;;;;;;;;;487154;29;1287;-70
2023/08/30 01:28:26;;;;;;;10.52;9.43;;;;;;;;;;487159;29;1429;-69
2023/08/30 01:28:42;;;;;;;10.43;9.43;;;;;;;;;;490065;29;923;-69
2023/08/30 01:29:01;;;;;;;10.07;9.07;;;;;;;;;;487094;29;1212;-69
2023/08/30 01:29:18;;;;;;;9.55;8.60;;;;;;;;;;484116;29;1408;-70
2023/08/30 01:29:37;;;;;;;9.98;8.98;;;;;;;;;;490132;29;1258;-69
2023/08/30 01:29:55;;;;;;;9.55;8.65;;;;;;;;;;490716;28;1934;-70
2023/08/30 01:30:11;;;;;;;10.20;9.20;;;;;;;;;;486411;28;1523;-70
2023/08/30 01:30:28;;;;;;;10.48;9.45;;;;;;;;;;490255;28;1218;-70
2023/08/30 01:30:45;;;;;;;10.52;9.43;;;;;;;;;;493063;28;1016;-70
2023/08/30 01:31:01;;;;;;;10.20;9.20;;;;;;;;;;489848;29;1109;-70
2023/08/30 01:31:18;;;;;;;10.30;9.30;;;;;;;;;;485060;29;1276;-69
2023/08/30 01:31:35;;;;;;;10.25;9.25;;;;;;;;;;489697;29;1369;-69
2023/08/30 01:31:51;;;;;;;10.43;9.38;;;;;;;;;;486585;29;1389;-69
2023/08/30 01:32:09;;;;;;;10.50;9.50;;;;;;;;;;484854;29;1093;-69
2023/08/30 01:32:25;;;;;;;10.50;9.50;;;;;;;;;;483307;29;1273;-70
2023/08/30 01:32:42;;;;;;;10.20;9.20;;;;;;;;;;488214;29;944;-69
2023/08/30 01:33:00;;;;;;;10.57;9.50;;;;;;;;;;489471;29;1457;-70
2023/08/30 01:33:18;;;;;;;10.70;9.55;;;;;;;;;;487943;29;1383;-70
2023/08/30 01:33:36;;;;;;;10.50;9.40;;;;;;;;;;488344;29;1307;-70
2023/08/30 01:33:52;;;;;;;9.50;8.65;;;;;;;;;;490794;29;1423;-69
2023/08/30 01:34:09;;;;;;;9.10;8.25;;;;;;;;;;485847;29;987;-69
2023/08/30 01:34:25;;;;;;;9.65;8.75;;;;;;;;;;486690;29;1069;-69
2023/08/30 01:34:42;;;;;;;10.07;9.07;;;;;;;;;;487123;29;1028;-70
2023/08/30 01:34:58;;;;;;;10.20;9.20;;;;;;;;;;493120;28;1549;-70
2023/08/30 01:35:17;;;;;;;10.15;9.15;;;;;;;;;;491637;29;1212;-70
2023/08/30 01:35:35;;;;;;;9.75;8.85;;;;;;;;;;490452;29;1088;-69
2023/08/30 01:35:54;;;;;;;10.00;9.00;;;;;;;;;;489626;29;1270;-70
2023/08/30 01:36:10;;;;;;;9.95;8.95;;;;;;;;;;486798;29;1277;-70
2023/08/30 01:36:26;;;;;;;10.02;9.02;;;;;;;;;;488873;29;1345;-70
2023/08/30 01:36:42;;;;;;;10.05;9.10;;;;;;;;;;491437;29;1153;-71
2023/08/30 01:36:59;;;;;;;10.15;9.15;;;;;;;;;;489543;29;1196;-70
2023/08/30 01:37:16;;;;;;;10.15;9.15;;;;;;;;;;487437;29;1342;-70
2023/08/30 01:37:32;;;;;;;10.25;9.25;;;;;;;;;;492151;29;1409;-70
2023/08/30 01:37:49;;;;;;;10.52;9.52;;;;;;;;;;490662;29;1239;-70
2023/08/30 01:38:06;;;;;;;10.02;9.13;;;;;;;;;;487800;29;1265;-70
2023/08/30 01:38:23;;;;;;;10.00;9.10;;;;;;;;;;486515;29;1419;-70
2023/08/30 01:38:39;;;;;;;10.43;9.43;;;;;;;;;;489759;29;1428;-69
2023/08/30 01:38:57;;;;;;;10.57;9.55;;;;;;;;;;489572;29;1103;-69
2023/08/30 01:39:14;;;;;;;10.40;9.40;;;;;;;;;;487880;29;1281;-69
2023/08/30 01:39:31;;;;;;;9.90;9.00;;;;;;;;;;488608;29;1414;-70
2023/08/30 01:39:47;;;;;;;9.90;9.00;;;;;;;;;;489754;29;1193;-69
2023/08/30 01:40:05;;;;;;;10.40;9.40;;;;;;;;;;486122;29;1346;-69
2023/08/30 01:40:20;;;;;;;10.60;9.50;;;;;;;;;;487692;29;1276;-70
2023/08/30 01:40:43;;;;;;;10.43;9.43;;;;;;;;;;490801;29;1307;-69
2023/08/30 01:41:00;;;;;;;10.38;9.30;;;;;;;;;;493055;29;1171;-76
2023/08/30 01:41:17;;;;;;;10.45;9.35;;;;;;;;;;488954;29;1387;-76
2023/08/30 01:41:33;;;;;;;9.57;8.68;;;;;;;;;;490045;29;1212;-74
2023/08/30 01:41:52;;;;;;;9.60;8.65;;;;;;;;;;491505;29;1198;-76
2023/08/30 01:42:09;;;;;;;9.75;8.82;;;;;;;;;;490176;29;1464;-76
2023/08/30 01:42:26;;;;;;;10.13;9.13;;;;;;;;;;483567;29;1315;-76
2023/08/30 01:42:45;;;;;;;10.20;9.20;;;;;;;;;;486769;29;1019;-76
2023/08/30 01:43:01;;;;;;;10.50;9.50;;;;;;;;;;489131;29;1435;-76
2023/08/30 01:43:18;;;;;;;10.73;9.60;;;;;;;;;;484793;29;1108;-76
2023/08/30 01:43:36;;;;;;;12.77;9.85;;;;;;;;;;487872;29;1460;-76
2023/08/30 01:43:53;;;;;;;11.10;9.38;;;;;;;;;;489662;29;1254;-76
2023/08/30 01:44:11;;;;;;;9.57;8.57;;;;;;;;;;490116;29;1679;-74
2023/08/30 01:44:28;;;;;;;9.30;8.40;;;;;;;;;;490859;28;1270;-76